Time;durP1;ratioP1;P1;durP2;ratioP2;P2;SDS_P1;SDS_P2;PMS_P1;PMS_P2;Temp;Humidity;BMP_temperature;BMP_pressure;BME280_temperature;BME280_humidity;BME280_pressure;Samples;Min_cycle;Max_cycle;Signal;HPM_P1;HPM_P2
2023/01/22 00:01:04;;;;;;;54.00;28.35;;;1.60;75.80;;;;;;5079316;28;20402;-75
2023/01/22 00:03:29;;;;;;;53.05;29.23;;;1.60;75.70;;;;;;5080881;28;20383;-76
2023/01/22 00:05:55;;;;;;;55.97;29.37;;;1.70;76.70;;;;;;5081222;28;20378;-75
2023/01/22 00:08:21;;;;;;;50.55;28.25;;;1.70;75.00;;;;;;5081361;28;20376;-75
2023/01/22 00:10:53;;;;;;;53.28;28.73;;;1.80;74.90;;;;;;5080448;28;20430;-75
2023/01/22 00:13:20;;;;;;;50.40;26.75;;;1.80;74.00;;;;;;5081525;28;20860;-75
2023/01/22 00:15:45;;;;;;;49.65;26.10;;;1.80;73.70;;;;;;5081759;28;20380;-75
2023/01/22 00:18:11;;;;;;;52.42;29.00;;;1.80;74.40;;;;;;5078469;28;20698;-74
2023/01/22 00:20:36;;;;;;;53.65;28.30;;;1.80;75.00;;;;;;5078608;28;20403;-75
2023/01/22 00:23:03;;;;;;;47.93;24.90;;;1.80;74.80;;;;;;5078318;28;20386;-76
2023/01/22 00:25:28;;;;;;;48.00;25.40;;;1.80;73.40;;;;;;5079560;28;20387;-75
2023/01/22 00:27:54;;;;;;;49.50;25.20;;;1.80;73.50;;;;;;5081463;28;20721;-75
2023/01/22 00:30:20;;;;;;;49.93;27.57;;;1.80;73.30;;;;;;5088751;28;20499;-75
2023/01/22 00:32:46;;;;;;;52.65;29.50;;;1.90;73.50;;;;;;5090769;28;20740;-74
2023/01/22 00:35:12;;;;;;;50.15;28.25;;;1.90;73.60;;;;;;5088017;28;20418;-76
2023/01/22 00:37:38;;;;;;;51.77;29.40;;;1.90;73.60;;;;;;5085220;28;20395;-74
2023/01/22 00:40:04;;;;;;;49.90;28.10;;;1.90;72.60;;;;;;5061879;28;20411;-75
2023/01/22 00:42:30;;;;;;;51.42;28.27;;;1.90;72.00;;;;;;5059242;28;20963;-75
2023/01/22 00:44:55;;;;;;;52.47;25.43;;;1.90;72.60;;;;;;5077738;28;20428;-74
2023/01/22 00:47:21;;;;;;;48.40;26.73;;;2.00;71.50;;;;;;5077664;28;20387;-75
2023/01/22 00:49:47;;;;;;;50.80;28.05;;;2.00;71.80;;;;;;5078503;28;20422;-77
2023/01/22 00:52:12;;;;;;;53.72;28.65;;;2.00;71.70;;;;;;5079847;28;20400;-76
2023/01/22 00:54:38;;;;;;;48.97;26.17;;;2.10;70.90;;;;;;5078250;28;20451;-75
2023/01/22 00:57:03;;;;;;;48.40;27.30;;;2.00;70.80;;;;;;5077326;28;20426;-75
2023/01/22 00:59:29;;;;;;;52.25;28.23;;;1.90;71.40;;;;;;5076983;28;20387;-74
2023/01/22 01:01:55;;;;;;;49.07;28.30;;;2.00;71.10;;;;;;5058758;28;20434;-76
2023/01/22 01:04:20;;;;;;;46.40;27.17;;;1.90;71.10;;;;;;5077069;28;20403;-75
2023/01/22 01:06:46;;;;;;;46.72;25.88;;;2.00;70.60;;;;;;5060326;28;20376;-74
2023/01/22 01:09:11;;;;;;;51.55;28.45;;;2.00;69.30;;;;;;5077714;28;20384;-77
2023/01/22 01:11:37;;;;;;;41.28;23.95;;;1.90;70.70;;;;;;5078182;28;20376;-75
2023/01/22 01:14:03;;;;;;;45.97;25.60;;;2.00;68.80;;;;;;5060172;28;20376;-76
2023/01/22 01:16:30;;;;;;;45.83;27.08;;;2.00;68.80;;;;;;5059062;28;20379;-75
2023/01/22 01:19:04;;;;;;;48.58;27.52;;;2.00;68.60;;;;;;5074598;28;20384;-76
2023/01/22 01:21:31;;;;;;;51.00;27.92;;;2.00;69.70;;;;;;5076027;28;20784;-75
2023/01/22 01:23:57;;;;;;;47.22;26.13;;;2.00;69.40;;;;;;5078679;28;20395;-74
2023/01/22 01:26:23;;;;;;;45.45;24.88;;;2.10;69.20;;;;;;5061044;28;20383;-74
2023/01/22 01:28:51;;;;;;;48.27;27.60;;;2.10;67.90;;;;;;5079318;28;20535;-75
2023/01/22 01:31:17;;;;;;;48.33;26.90;;;2.00;68.40;;;;;;5059795;28;20392;-75
2023/01/22 01:33:44;;;;;;;53.25;28.33;;;2.00;68.50;;;;;;5082438;28;20384;-73
2023/01/22 01:36:15;;;;;;;52.90;27.43;;;2.00;68.80;;;;;;5080507;28;20771;-76
2023/01/22 01:38:41;;;;;;;47.58;25.95;;;2.00;69.20;;;;;;5078675;28;20390;-75
2023/01/22 01:41:07;;;;;;;50.28;27.17;;;1.90;70.20;;;;;;5076783;28;20400;-74
2023/01/22 01:43:33;;;;;;;51.45;27.83;;;1.90;71.00;;;;;;5079421;28;20431;-74
2023/01/22 01:46:01;;;;;;;50.03;27.80;;;1.90;71.40;;;;;;5076346;28;20466;-75
2023/01/22 01:48:34;;;;;;;48.78;27.65;;;1.90;71.90;;;;;;5075563;28;20380;-74
2023/01/22 01:51:03;;;;;;;53.33;27.95;;;1.90;71.60;;;;;;5074509;28;20388;-75
2023/01/22 01:53:29;;;;;;;50.33;27.98;;;1.90;72.20;;;;;;5074002;28;20402;-75
2023/01/22 01:55:56;;;;;;;46.40;27.20;;;1.90;72.20;;;;;;5056651;28;20388;-75
2023/01/22 01:58:22;;;;;;;48.65;26.95;;;1.90;72.10;;;;;;5073241;28;20414;-74
2023/01/22 02:00:54;;;;;;;47.50;24.60;;;1.90;71.90;;;;;;5073986;28;20421;-75
2023/01/22 02:03:20;;;;;;;48.22;25.27;;;1.80;71.60;;;;;;5073351;28;20865;-73
2023/01/22 02:05:46;;;;;;;50.42;27.42;;;1.80;72.30;;;;;;5073705;28;20383;-75
2023/01/22 02:08:12;;;;;;;50.47;28.20;;;1.90;73.20;;;;;;5072425;28;20451;-74
2023/01/22 02:10:38;;;;;;;50.55;26.58;;;1.80;72.40;;;;;;5054560;28;20482;-74
2023/01/22 02:13:08;;;;;;;50.83;28.00;;;1.90;72.40;;;;;;5072674;28;20396;-75
2023/01/22 02:15:36;;;;;;;49.47;28.10;;;1.90;71.80;;;;;;5054786;28;20445;-76
2023/01/22 02:18:02;;;;;;;51.20;28.65;;;1.90;71.30;;;;;;5072038;28;20411;-74
2023/01/22 02:20:33;;;;;;;52.67;27.30;;;2.00;71.90;;;;;;5072145;28;20411;-75
2023/01/22 02:22:58;;;;;;;46.90;27.23;;;2.00;70.80;;;;;;5072931;28;20726;-76
2023/01/22 02:25:24;;;;;;;48.60;27.90;;;2.00;70.70;;;;;;5071012;28;20413;-75
2023/01/22 02:27:50;;;;;;;47.92;26.65;;;1.90;70.70;;;;;;5072402;28;20475;-74
2023/01/22 02:30:16;;;;;;;45.30;26.40;;;2.00;70.40;;;;;;5072748;28;20431;-75
2023/01/22 02:32:41;;;;;;;47.78;24.65;;;2.00;71.60;;;;;;5074421;28;20390;-74
2023/01/22 02:35:07;;;;;;;46.13;24.00;;;2.00;70.40;;;;;;5075151;28;20453;-73
2023/01/22 02:37:33;;;;;;;41.93;22.97;;;1.90;71.20;;;;;;5074794;28;20390;-76
2023/01/22 02:39:58;;;;;;;45.28;26.70;;;1.90;72.70;;;;;;5054921;28;20402;-75
2023/01/22 02:42:25;;;;;;;47.15;26.23;;;1.80;75.10;;;;;;5074548;28;20871;-75
2023/01/22 02:44:51;;;;;;;50.13;28.13;;;1.80;76.10;;;;;;5074580;28;20380;-74
2023/01/22 02:47:17;;;;;;;50.60;28.35;;;1.80;76.10;;;;;;5073444;28;20718;-75
2023/01/22 02:49:43;;;;;;;43.50;26.77;;;1.80;78.70;;;;;;5073437;28;20399;-75
2023/01/22 02:52:08;;;;;;;47.50;27.97;;;1.80;76.50;;;;;;5056115;28;20384;-75
2023/01/22 02:54:34;;;;;;;45.30;26.47;;;1.90;76.50;;;;;;5073514;28;20422;-75
2023/01/22 02:56:59;;;;;;;47.10;27.60;;;1.90;73.60;;;;;;5072318;28;20391;-74
2023/01/22 02:59:25;;;;;;;47.87;26.13;;;1.90;73.90;;;;;;5072303;28;20383;-74
2023/01/22 03:01:51;;;;;;;42.40;24.13;;;1.90;71.50;;;;;;5072418;28;20386;-74
2023/01/22 03:04:16;;;;;;;43.33;24.23;;;1.90;70.40;;;;;;5071739;28;20942;-74
2023/01/22 03:06:44;;;;;;;45.90;26.03;;;1.90;70.30;;;;;;5078823;28;20372;-74
2023/01/22 03:09:12;;;;;;;45.90;26.35;;;1.90;71.40;;;;;;5082791;28;20378;-73
2023/01/22 03:11:40;;;;;;;43.28;26.15;;;1.90;71.70;;;;;;5073656;28;20383;-73
2023/01/22 03:22:19;;;;;;;41.88;25.15;;;2.00;69.80;;;;;;5072444;28;20872;-74
2023/01/22 03:24:50;;;;;;;40.53;23.30;;;2.10;69.70;;;;;;5074953;28;20388;-75
2023/01/22 03:27:20;;;;;;;37.17;22.50;;;2.10;67.20;;;;;;5074538;28;20794;-75
2023/01/22 03:29:46;;;;;;;43.42;26.13;;;2.00;68.20;;;;;;5075550;28;20806;-73
2023/01/22 03:32:13;;;;;;;40.33;24.70;;;2.00;69.60;;;;;;5075759;28;20376;-73
2023/01/22 03:34:38;;;;;;;41.13;25.52;;;1.90;70.40;;;;;;5074710;28;20380;-74
2023/01/22 03:37:05;;;;;;;44.22;26.25;;;2.00;71.50;;;;;;5074452;28;20387;-74
2023/01/22 03:39:31;;;;;;;41.92;25.00;;;1.90;71.80;;;;;;5072373;28;20395;-74
2023/01/22 03:41:57;;;;;;;43.72;24.00;;;1.90;71.30;;;;;;5071011;28;20471;-74
2023/01/22 03:44:23;;;;;;;43.00;25.10;;;1.90;70.60;;;;;;5070972;28;20466;-74
2023/01/22 03:46:48;;;;;;;40.00;22.73;;;1.90;71.30;;;;;;5053053;28;20392;-73
2023/01/22 03:49:14;;;;;;;44.22;24.98;;;1.90;70.40;;;;;;5071200;28;20380;-74
2023/01/22 03:51:41;;;;;;;41.73;24.63;;;1.80;71.10;;;;;;5070946;28;20383;-74
2023/01/22 03:54:08;;;;;;;45.75;24.70;;;1.80;70.90;;;;;;5070913;28;20471;-75
2023/01/22 03:56:34;;;;;;;39.95;23.30;;;1.80;71.30;;;;;;5071611;28;20802;-75
2023/01/22 03:58:59;;;;;;;38.40;22.13;;;1.80;71.90;;;;;;5072118;28;20380;-75
2023/01/22 04:01:26;;;;;;;42.03;24.50;;;1.90;71.20;;;;;;5070553;28;20404;-74
2023/01/22 04:03:52;;;;;;;38.10;24.10;;;1.90;71.20;;;;;;5070592;28;20386;-75
2023/01/22 04:06:19;;;;;;;38.40;23.87;;;1.80;73.20;;;;;;5070813;28;20372;-73
2023/01/22 04:08:46;;;;;;;42.20;23.88;;;1.90;72.30;;;;;;5070761;28;20437;-73
2023/01/22 04:11:13;;;;;;;35.40;22.25;;;1.90;72.50;;;;;;5070801;28;20854;-74
2023/01/22 04:13:40;;;;;;;37.38;23.55;;;1.80;73.00;;;;;;5070922;28;20755;-74
2023/01/22 04:16:08;;;;;;;34.17;21.70;;;1.80;75.00;;;;;;5073648;28;20547;-74
2023/01/22 04:18:34;;;;;;;39.47;22.25;;;1.70;75.60;;;;;;5074059;28;20741;-74
2023/01/22 04:21:00;;;;;;;36.70;22.73;;;1.70;77.00;;;;;;5074361;28;20404;-74
2023/01/22 04:23:26;;;;;;;38.93;22.80;;;1.70;77.30;;;;;;5057990;28;20481;-75
2023/01/22 04:25:52;;;;;;;35.97;23.05;;;1.60;78.20;;;;;;5075897;28;20407;-74
2023/01/22 04:28:18;;;;;;;34.92;21.65;;;1.70;78.40;;;;;;5075763;28;20388;-74
2023/01/22 04:30:45;;;;;;;36.55;21.90;;;1.70;77.60;;;;;;5075284;28;20421;-74
2023/01/22 04:33:12;;;;;;;38.88;22.00;;;1.60;77.80;;;;;;5074621;28;20392;-74
2023/01/22 04:35:38;;;;;;;38.83;23.92;;;1.60;78.70;;;;;;5073781;28;20417;-75
2023/01/22 04:38:06;;;;;;;33.08;20.10;;;1.60;79.30;;;;;;5074150;28;20383;-73
2023/01/22 04:40:32;;;;;;;31.98;20.33;;;1.60;76.80;;;;;;5074111;28;20407;-73
2023/01/22 04:43:02;;;;;;;34.88;22.50;;;1.60;78.00;;;;;;5074062;28;20453;-74
2023/01/22 04:45:28;;;;;;;31.02;19.98;;;1.50;78.90;;;;;;5074095;28;20463;-74
2023/01/22 04:47:54;;;;;;;32.50;20.77;;;1.50;79.00;;;;;;5073999;28;20439;-73
2023/01/22 04:50:23;;;;;;;35.70;21.02;;;1.50;79.80;;;;;;5074764;28;20383;-73
2023/01/22 04:52:50;;;;;;;36.17;20.63;;;1.50;80.20;;;;;;5073571;28;20429;-74
2023/01/22 04:55:16;;;;;;;36.20;21.50;;;1.50;80.30;;;;;;5073717;28;20376;-72
2023/01/22 04:57:42;;;;;;;36.83;22.70;;;1.50;81.00;;;;;;5055613;28;20403;-74
2023/01/22 05:00:09;;;;;;;36.03;21.83;;;1.50;81.70;;;;;;5073461;28;20406;-74
2023/01/22 05:02:35;;;;;;;33.53;21.27;;;1.50;82.10;;;;;;5073484;28;20405;-74
2023/01/22 05:05:01;;;;;;;33.47;21.38;;;1.50;81.50;;;;;;5073767;28;20386;-74
2023/01/22 05:07:27;;;;;;;35.03;21.83;;;1.50;81.60;;;;;;5074131;28;20374;-73
2023/01/22 05:09:52;;;;;;;34.03;20.90;;;1.60;81.40;;;;;;5055996;28;20398;-73
2023/01/22 05:12:18;;;;;;;33.45;20.40;;;1.50;82.30;;;;;;5055718;28;20392;-73
2023/01/22 05:14:43;;;;;;;37.05;22.92;;;1.40;83.70;;;;;;5073601;28;20385;-73
2023/01/22 05:17:09;;;;;;;33.80;21.60;;;1.40;85.70;;;;;;5073578;28;20375;-74
2023/01/22 05:19:34;;;;;;;36.97;23.33;;;1.40;85.80;;;;;;5073405;28;20383;-73
2023/01/22 05:22:00;;;;;;;36.65;22.70;;;1.40;87.60;;;;;;5073255;28;20779;-73
2023/01/22 05:24:26;;;;;;;36.20;21.63;;;1.40;88.10;;;;;;5073672;28;20799;-73
2023/01/22 05:26:52;;;;;;;37.50;22.30;;;1.40;87.80;;;;;;5072547;28;20397;-74
2023/01/22 05:29:18;;;;;;;34.83;22.93;;;1.40;88.60;;;;;;5073334;28;20972;-74
2023/01/22 05:31:43;;;;;;;38.17;24.20;;;1.40;89.30;;;;;;5054950;28;20629;-74
2023/01/22 05:34:09;;;;;;;35.30;24.05;;;1.40;90.70;;;;;;5073850;28;20401;-74
2023/01/22 05:36:34;;;;;;;36.22;22.95;;;1.30;90.50;;;;;;5074085;28;20744;-73
2023/01/22 05:39:00;;;;;;;37.57;23.50;;;1.40;89.50;;;;;;5078252;28;20408;-73
2023/01/22 05:41:26;;;;;;;35.13;21.83;;;1.40;89.20;;;;;;5088437;28;20496;-74
2023/01/22 05:43:51;;;;;;;34.42;20.45;;;1.40;87.90;;;;;;5078236;28;20449;-73
2023/01/22 05:46:17;;;;;;;35.40;22.37;;;1.40;87.60;;;;;;5073008;28;20380;-73
2023/01/22 05:48:42;;;;;;;33.57;21.13;;;1.40;88.20;;;;;;5072881;28;20427;-73
2023/01/22 05:51:09;;;;;;;36.73;22.80;;;1.30;87.40;;;;;;5072719;28;20418;-73
2023/01/22 05:53:35;;;;;;;37.00;20.48;;;1.30;88.80;;;;;;5073217;28;20490;-73
2023/01/22 05:56:02;;;;;;;39.30;25.00;;;1.30;88.10;;;;;;5073026;28;20838;-74
2023/01/22 05:58:28;;;;;;;38.20;23.60;;;1.30;89.80;;;;;;5054675;28;20401;-74
2023/01/22 06:00:54;;;;;;;38.22;21.60;;;1.30;89.00;;;;;;5072368;28;20411;-72
2023/01/22 06:03:20;;;;;;;40.70;24.43;;;1.40;87.80;;;;;;5072397;28;20884;-75
2023/01/22 06:05:45;;;;;;;35.20;21.90;;;1.40;87.90;;;;;;5072189;28;20380;-74
2023/01/22 06:08:11;;;;;;;36.50;23.98;;;1.50;87.70;;;;;;5072590;28;20377;-73
2023/01/22 06:10:36;;;;;;;38.70;24.77;;;1.50;87.30;;;;;;5072586;28;20479;-72
2023/01/22 06:13:02;;;;;;;42.50;24.90;;;1.50;87.00;;;;;;5072366;28;20395;-73
2023/01/22 06:15:27;;;;;;;38.20;24.30;;;1.50;86.70;;;;;;5073383;28;20387;-75
2023/01/22 06:17:53;;;;;;;35.95;22.60;;;1.40;86.70;;;;;;5072416;28;20390;-74
2023/01/22 06:20:18;;;;;;;36.40;23.50;;;1.50;87.30;;;;;;5054816;28;20487;-74
2023/01/22 06:22:44;;;;;;;38.10;22.83;;;1.40;87.00;;;;;;5071601;28;20419;-73
2023/01/22 06:25:10;;;;;;;38.83;24.27;;;1.50;87.60;;;;;;5072225;28;20382;-74
2023/01/22 06:27:35;;;;;;;35.70;22.77;;;1.50;87.10;;;;;;5072116;28;20376;-73
2023/01/22 06:30:01;;;;;;;38.25;22.75;;;1.50;86.70;;;;;;5071517;28;20804;-73
2023/01/22 06:32:26;;;;;;;39.13;23.42;;;1.50;86.60;;;;;;5071965;28;20395;-73
2023/01/22 06:34:55;;;;;;;37.93;22.90;;;1.50;87.00;;;;;;5072314;28;20383;-75
2023/01/22 06:37:21;;;;;;;37.20;23.65;;;1.50;87.10;;;;;;5071932;28;20440;-74
2023/01/22 06:39:47;;;;;;;38.07;22.80;;;1.50;87.00;;;;;;5071576;28;20418;-74
2023/01/22 06:42:12;;;;;;;41.75;25.13;;;1.50;86.80;;;;;;5071662;28;20384;-74
2023/01/22 06:44:38;;;;;;;35.28;22.90;;;1.50;87.00;;;;;;5071541;28;20451;-74
2023/01/22 06:47:03;;;;;;;33.23;19.53;;;1.60;85.60;;;;;;5071647;28;20387;-74
2023/01/22 06:49:29;;;;;;;34.17;21.80;;;1.50;84.60;;;;;;5071247;28;20383;-73
2023/01/22 06:51:54;;;;;;;35.40;22.57;;;1.60;84.90;;;;;;5071566;28;20390;-74
2023/01/22 06:54:20;;;;;;;40.13;24.95;;;1.50;85.00;;;;;;5071897;28;20415;-73
2023/01/22 06:56:46;;;;;;;36.50;21.73;;;1.60;85.30;;;;;;5071581;28;20391;-74
2023/01/22 06:59:11;;;;;;;35.90;22.17;;;1.60;83.30;;;;;;5071766;28;20410;-73
2023/01/22 07:01:37;;;;;;;40.07;22.30;;;1.60;83.90;;;;;;5071244;28;20423;-74
2023/01/22 07:04:02;;;;;;;31.87;19.30;;;1.70;83.40;;;;;;5071488;28;20860;-73
2023/01/22 07:06:28;;;;;;;41.22;22.08;;;1.70;80.90;;;;;;5071656;28;20388;-73
2023/01/22 07:08:55;;;;;;;37.00;20.88;;;1.70;81.20;;;;;;5071745;28;20384;-73
2023/01/22 07:11:20;;;;;;;33.53;21.05;;;1.70;81.10;;;;;;5073007;28;20391;-74
2023/01/22 07:13:46;;;;;;;33.63;19.13;;;1.70;81.70;;;;;;5072343;28;20388;-75
2023/01/22 07:16:11;;;;;;;32.75;20.55;;;1.70;81.20;;;;;;5072137;28;20375;-74
2023/01/22 07:18:37;;;;;;;31.70;18.40;;;1.70;81.50;;;;;;5073105;28;20518;-73
2023/01/22 07:21:04;;;;;;;33.77;20.73;;;1.70;81.10;;;;;;5071766;28;20494;-73
2023/01/22 07:23:30;;;;;;;30.88;19.83;;;1.70;81.10;;;;;;5071936;28;20387;-73
2023/01/22 07:25:56;;;;;;;35.47;21.90;;;1.70;80.30;;;;;;5071979;28;20383;-73
2023/01/22 07:28:22;;;;;;;31.57;21.20;;;1.70;80.90;;;;;;5072175;28;20388;-75
2023/01/22 07:30:47;;;;;;;31.17;21.10;;;1.80;80.70;;;;;;5071788;28;20394;-73
2023/01/22 07:33:15;;;;;;;30.20;20.10;;;1.80;79.90;;;;;;5070994;28;20485;-74
2023/01/22 07:35:40;;;;;;;31.73;20.77;;;1.80;79.20;;;;;;5072771;28;20407;-75
2023/01/22 07:38:10;;;;;;;29.43;20.33;;;1.80;80.60;;;;;;5072864;28;20891;-73
2023/01/22 07:40:36;;;;;;;31.60;20.95;;;1.80;81.20;;;;;;5055166;28;20410;-73
2023/01/22 07:43:05;;;;;;;30.77;21.05;;;1.80;80.30;;;;;;5055431;28;20799;-74
2023/01/22 07:45:31;;;;;;;30.75;21.10;;;1.90;81.10;;;;;;5073657;28;20376;-73
2023/01/22 07:47:58;;;;;;;34.30;21.77;;;1.90;80.50;;;;;;5074145;28;20891;-74
2023/01/22 07:50:29;;;;;;;35.60;21.65;;;1.90;80.80;;;;;;5058433;28;20420;-72
2023/01/22 07:52:54;;;;;;;28.42;20.08;;;2.00;80.00;;;;;;5079488;28;20433;-73
2023/01/22 07:55:21;;;;;;;30.98;20.60;;;2.00;78.60;;;;;;5083184;28;20375;-74
2023/01/22 07:57:46;;;;;;;28.45;19.10;;;2.00;79.70;;;;;;5083524;28;20454;-73
2023/01/22 08:00:14;;;;;;;30.67;20.20;;;2.00;78.90;;;;;;5084791;28;20907;-73
2023/01/22 08:02:43;;;;;;;30.23;19.95;;;2.00;79.30;;;;;;5084603;28;20430;-74
2023/01/22 08:05:11;;;;;;;32.30;19.67;;;1.90;80.00;;;;;;5082883;28;20399;-74
2023/01/22 08:07:36;;;;;;;31.05;20.70;;;2.00;79.60;;;;;;5082205;28;20437;-75
2023/01/22 08:10:02;;;;;;;28.35;19.77;;;2.00;78.80;;;;;;5080319;28;20387;-74
2023/01/22 08:12:28;;;;;;;30.13;20.90;;;1.90;79.20;;;;;;5082293;28;20410;-74
2023/01/22 08:14:53;;;;;;;33.20;20.77;;;2.00;79.80;;;;;;5084203;28;20829;-73
2023/01/22 08:17:19;;;;;;;31.05;20.65;;;2.00;79.70;;;;;;5063249;28;20387;-73
2023/01/22 08:19:44;;;;;;;38.85;20.80;;;2.10;78.90;;;;;;5080221;28;20744;-75
2023/01/22 08:22:10;;;;;;;31.97;21.10;;;2.20;78.20;;;;;;5062954;28;20874;-74
2023/01/22 08:24:35;;;;;;;30.43;20.30;;;2.20;76.30;;;;;;5079331;28;20372;-74
2023/01/22 08:27:01;;;;;;;29.90;20.23;;;2.20;75.50;;;;;;5077780;28;20374;-74
2023/01/22 08:29:26;;;;;;;29.02;20.02;;;2.20;75.70;;;;;;5076380;28;20423;-75
2023/01/22 08:31:52;;;;;;;30.05;19.63;;;2.20;75.40;;;;;;5076005;28;20395;-74
2023/01/22 08:34:19;;;;;;;29.80;20.67;;;2.20;75.70;;;;;;5077853;28;20458;-74
2023/01/22 08:36:45;;;;;;;33.78;21.75;;;2.10;77.10;;;;;;5077754;28;20380;-75
2023/01/22 08:39:12;;;;;;;30.95;21.90;;;2.20;77.80;;;;;;5077739;28;20384;-73
2023/01/22 08:41:37;;;;;;;32.22;20.58;;;2.20;79.90;;;;;;5076144;28;20400;-74
2023/01/22 08:44:03;;;;;;;29.70;19.80;;;2.20;77.90;;;;;;5076810;28;20376;-75
2023/01/22 08:46:29;;;;;;;33.43;22.23;;;2.20;77.10;;;;;;5076621;28;20395;-75
2023/01/22 08:48:54;;;;;;;31.52;20.48;;;2.20;78.00;;;;;;5077559;28;20376;-75
2023/01/22 08:51:22;;;;;;;31.55;22.05;;;2.20;77.90;;;;;;5076932;28;20388;-76
2023/01/22 08:53:48;;;;;;;29.90;21.13;;;2.20;78.60;;;;;;5076123;28;20441;-75
2023/01/22 08:56:13;;;;;;;32.90;21.95;;;2.20;79.10;;;;;;5077299;28;20379;-75
2023/01/22 08:58:39;;;;;;;30.52;20.58;;;2.30;79.00;;;;;;5077166;28;20392;-74
2023/01/22 09:01:05;;;;;;;29.17;20.52;;;2.30;78.10;;;;;;5077490;28;20410;-76
2023/01/22 09:03:30;;;;;;;29.53;20.80;;;2.40;76.90;;;;;;5076823;28;20382;-75
2023/01/22 09:05:57;;;;;;;28.70;19.40;;;2.30;77.40;;;;;;5075249;28;20713;-74
2023/01/22 09:08:23;;;;;;;32.22;19.77;;;2.40;76.50;;;;;;5075768;28;20599;-75
2023/01/22 09:10:49;;;;;;;30.95;20.75;;;2.40;76.20;;;;;;5074065;28;20380;-75
2023/01/22 09:13:14;;;;;;;32.83;22.23;;;2.40;75.90;;;;;;5074989;28;20390;-75
2023/01/22 09:15:40;;;;;;;29.67;19.60;;;2.50;75.80;;;;;;5074852;28;20976;-74
2023/01/22 09:18:06;;;;;;;32.70;21.10;;;2.50;73.50;;;;;;5075413;28;20391;-74
2023/01/22 09:20:32;;;;;;;29.95;19.17;;;2.50;73.50;;;;;;5057980;28;20400;-75
2023/01/22 09:22:57;;;;;;;34.37;21.27;;;2.40;73.80;;;;;;5057546;28;20407;-75
2023/01/22 09:25:25;;;;;;;33.17;21.10;;;2.40;74.90;;;;;;5075194;28;20458;-75
2023/01/22 09:27:56;;;;;;;34.25;22.30;;;2.40;75.80;;;;;;5074444;28;20985;-74
2023/01/22 09:30:25;;;;;;;32.85;20.80;;;2.40;75.50;;;;;;5074980;28;20388;-76
2023/01/22 09:32:50;;;;;;;34.80;21.40;;;2.50;75.00;;;;;;5074529;28;20379;-75
2023/01/22 09:35:16;;;;;;;26.95;19.92;;;2.50;75.40;;;;;;5075123;28;20383;-75
2023/01/22 09:37:42;;;;;;;33.80;21.63;;;2.50;75.90;;;;;;5074211;28;20459;-75
2023/01/22 09:40:21;;;;;;;30.17;19.40;;;2.60;73.90;;;;;;5074305;28;20494;-75
2023/01/22 09:42:48;;;;;;;34.40;22.48;;;2.60;73.50;;;;;;5074195;28;20390;-73
2023/01/22 09:45:16;;;;;;;32.42;20.70;;;2.60;74.30;;;;;;5074198;28;20455;-73
2023/01/22 09:47:50;;;;;;;30.95;21.35;;;2.60;73.50;;;;;;5074203;28;20394;-76
2023/01/22 09:50:24;;;;;;;33.80;21.77;;;2.60;73.60;;;;;;5074785;28;20379;-75
2023/01/22 09:52:52;;;;;;;33.83;21.43;;;2.60;73.80;;;;;;5073968;28;20387;-75
2023/01/22 09:55:21;;;;;;;31.30;21.88;;;2.60;74.20;;;;;;5074585;28;20398;-74
2023/01/22 09:57:52;;;;;;;33.33;22.30;;;2.60;75.40;;;;;;5073745;28;20415;-73
2023/01/22 10:00:22;;;;;;;32.67;22.02;;;2.60;74.90;;;;;;5074281;28;20767;-74
2023/01/22 10:02:53;;;;;;;31.83;22.00;;;2.70;73.90;;;;;;5073837;28;20418;-76
2023/01/22 10:05:35;;;;;;;32.33;21.17;;;2.70;73.50;;;;;;5074065;28;20883;-75
2023/01/22 10:08:13;;;;;;;37.23;21.70;;;2.70;73.20;;;;;;5073583;28;20880;-76
2023/01/22 10:10:39;;;;;;;28.88;20.58;;;2.70;73.80;;;;;;5073266;28;20387;-76
2023/01/22 10:13:29;;;;;;;31.23;21.93;;;2.80;73.50;;;;;;5072798;28;20470;-75
2023/01/22 10:15:55;;;;;;;28.65;19.33;;;2.80;72.70;;;;;;5073153;28;20399;-75
2023/01/22 10:18:42;;;;;;;30.48;20.98;;;2.70;71.30;;;;;;5054858;28;20387;-75
2023/01/22 10:21:32;;;;;;;29.40;20.75;;;2.60;74.00;;;;;;5072414;28;20446;-74
2023/01/22 10:23:58;;;;;;;28.48;19.08;;;2.50;74.90;;;;;;5072294;28;20775;-76
2023/01/22 10:26:42;;;;;;;33.05;21.13;;;2.50;74.30;;;;;;5073041;28;20426;-76
2023/01/22 10:29:13;;;;;;;31.48;22.00;;;2.50;74.90;;;;;;5072555;28;20460;-75
2023/01/22 10:31:45;;;;;;;32.38;21.40;;;2.50;75.00;;;;;;5072258;28;20869;-76
2023/01/22 10:35:00;;;;;;;32.15;21.00;;;2.50;76.60;;;;;;5072737;28;20783;-75
2023/01/22 10:37:26;;;;;;;33.90;22.00;;;2.60;75.10;;;;;;4972614;28;20388;-74
2023/01/22 10:39:57;;;;;;;34.72;22.60;;;2.60;76.10;;;;;;5060726;28;20796;-75
2023/01/22 10:42:25;;;;;;;32.10;21.90;;;2.70;75.10;;;;;;5073035;28;20387;-75
2023/01/22 10:44:57;;;;;;;29.80;19.55;;;2.70;74.20;;;;;;5058787;28;20384;-75
2023/01/22 10:47:26;;;;;;;32.85;21.92;;;2.80;72.00;;;;;;5084429;28;20790;-75
2023/01/22 10:50:04;;;;;;;29.88;20.00;;;2.60;74.10;;;;;;5074445;28;20479;-77
2023/01/22 10:52:37;;;;;;;35.63;22.38;;;2.60;74.00;;;;;;5071962;28;20395;-75
2023/01/22 10:55:03;;;;;;;30.75;21.83;;;2.50;76.30;;;;;;5072781;28;20387;-75
2023/01/22 10:57:33;;;;;;;35.55;21.42;;;2.60;75.50;;;;;;5072257;28;20474;-76
2023/01/22 11:00:21;;;;;;;31.98;20.42;;;2.60;74.90;;;;;;5072158;28;20482;-76
2023/01/22 11:02:49;;;;;;;33.05;22.20;;;2.70;73.60;;;;;;5072087;28;20422;-76
2023/01/22 11:05:24;;;;;;;33.15;23.15;;;2.60;75.00;;;;;;5071441;28;20528;-76
2023/01/22 11:07:56;;;;;;;34.05;22.52;;;2.60;78.00;;;;;;5053169;28;20384;-75
2023/01/22 11:10:29;;;;;;;33.47;22.38;;;2.70;78.90;;;;;;5071726;28;20395;-75
2023/01/22 11:13:09;;;;;;;38.20;24.10;;;2.80;74.40;;;;;;5071544;28;20384;-75
2023/01/22 11:15:44;;;;;;;37.42;23.35;;;2.90;74.10;;;;;;5071557;28;20415;-75
2023/01/22 11:18:17;;;;;;;34.28;23.25;;;2.90;73.40;;;;;;5071992;28;20453;-76
2023/01/22 11:20:53;;;;;;;32.17;23.38;;;3.00;71.10;;;;;;5072070;28;20412;-74
2023/01/22 11:23:29;;;;;;;32.33;22.33;;;2.90;72.70;;;;;;5072064;28;20478;-76
2023/01/22 11:26:23;;;;;;;36.05;23.08;;;3.00;70.00;;;;;;5071340;28;20376;-76
2023/01/22 11:29:16;;;;;;;31.65;22.35;;;3.10;69.50;;;;;;5071588;28;20423;-75
2023/01/22 11:31:59;;;;;;;32.08;22.55;;;3.20;68.40;;;;;;5071320;28;20386;-76
2023/01/22 11:34:55;;;;;;;34.38;23.85;;;3.10;68.20;;;;;;5071362;28;20383;-74
2023/01/22 11:37:35;;;;;;;34.63;23.05;;;3.20;68.30;;;;;;5032089;28;20390;-75
2023/01/22 11:40:28;;;;;;;34.40;23.77;;;3.10;68.50;;;;;;5071774;28;20406;-76
2023/01/22 11:43:00;;;;;;;34.90;22.48;;;3.20;70.30;;;;;;5071494;28;20372;-76
2023/01/22 11:45:51;;;;;;;36.83;23.63;;;3.20;68.00;;;;;;5071355;28;20375;-75
2023/01/22 11:48:57;;;;;;;36.20;24.23;;;3.20;68.90;;;;;;5070999;28;20372;-76
2023/01/22 11:51:35;;;;;;;34.45;23.33;;;3.30;69.20;;;;;;5070961;28;20383;-74
2023/01/22 11:54:37;;;;;;;34.97;23.05;;;3.40;68.60;;;;;;5071309;28;20375;-75
2023/01/22 11:57:24;;;;;;;33.58;23.58;;;3.30;66.30;;;;;;5071595;28;20402;-76
2023/01/22 12:00:18;;;;;;;33.77;24.40;;;3.30;67.70;;;;;;5071723;28;20449;-75
2023/01/22 12:03:13;;;;;;;33.70;23.10;;;3.30;68.80;;;;;;5070654;28;20438;-77
2023/01/22 12:05:59;;;;;;;33.80;22.25;;;3.30;66.80;;;;;;5071302;28;20387;-75
2023/01/22 12:08:31;;;;;;;33.07;23.50;;;3.40;68.70;;;;;;5057300;28;20477;-75
2023/01/22 12:11:12;;;;;;;34.65;24.05;;;3.40;68.10;;;;;;5069953;28;20372;-74
2023/01/22 12:14:10;;;;;;;34.45;22.73;;;3.30;68.20;;;;;;5051578;28;20513;-74
2023/01/22 12:16:53;;;;;;;38.80;25.63;;;3.30;69.00;;;;;;5069413;28;20406;-76
2023/01/22 12:19:42;;;;;;;35.88;24.23;;;3.30;71.50;;;;;;5071560;28;20387;-76
2023/01/22 12:22:27;;;;;;;33.30;23.05;;;3.40;67.70;;;;;;5069647;28;20788;-74
2023/01/22 12:25:22;;;;;;;38.78;23.60;;;3.40;67.90;;;;;;5059706;28;20386;-75
2023/01/22 12:27:58;;;;;;;33.13;23.55;;;3.30;67.80;;;;;;5048489;28;20921;-73
2023/01/22 12:30:51;;;;;;;35.38;22.90;;;3.30;68.30;;;;;;5048983;28;20936;-73
2023/01/22 12:33:22;;;;;;;35.88;23.58;;;3.40;68.90;;;;;;5049074;28;20387;-75
2023/01/22 12:35:50;;;;;;;33.88;22.35;;;3.40;67.80;;;;;;5060949;28;20389;-74
2023/01/22 12:38:42;;;;;;;32.60;22.70;;;3.40;66.60;;;;;;5071934;28;20379;-74
2023/01/22 12:41:31;;;;;;;30.35;20.45;;;3.40;69.50;;;;;;5072005;28;20490;-73
2023/01/22 12:44:28;;;;;;;31.83;22.30;;;3.40;67.40;;;;;;5071941;28;20384;-72
2023/01/22 12:47:22;;;;;;;30.83;22.60;;;3.50;67.20;;;;;;5071885;28;20383;-74
2023/01/22 12:49:50;;;;;;;30.00;20.08;;;3.50;67.80;;;;;;5072101;28;20391;-73
2023/01/22 12:52:33;;;;;;;29.42;19.77;;;3.60;65.60;;;;;;5073291;28;20795;-73
2023/01/22 12:55:00;;;;;;;30.17;20.90;;;3.60;64.50;;;;;;5072307;28;20733;-73